Time;durP1;ratioP1;P1;durP2;ratioP2;P2;SDS_P1;SDS_P2;PMS_P1;PMS_P2;Temp;Humidity;BMP_temperature;BMP_pressure;BME280_temperature;BME280_humidity;BME280_pressure;Samples;Min_cycle;Max_cycle;Signal;HPM_P1;HPM_P2
2021/08/12 00:00:33;;;;;;;6.20;5.60;;;16.80;99.90;;;;;;5049418;28;20947;-66
2021/08/12 00:02:59;;;;;;;7.30;5.10;;;16.80;99.90;;;;;;5048699;28;20836;-66
2021/08/12 00:05:26;;;;;;;8.40;5.37;;;16.70;99.90;;;;;;5049331;28;20482;-67
2021/08/12 00:07:53;;;;;;;5.90;5.33;;;16.70;99.90;;;;;;5048321;28;20467;-67
2021/08/12 00:10:21;;;;;;;4.70;4.30;;;16.70;99.90;;;;;;5049268;28;20467;-67
2021/08/12 00:12:47;;;;;;;7.03;5.00;;;16.70;99.90;;;;;;5049326;28;20943;-66
2021/08/12 00:15:14;;;;;;;6.50;5.20;;;16.60;99.90;;;;;;5048528;28;20487;-66
2021/08/12 00:17:41;;;;;;;5.17;4.67;;;16.60;99.90;;;;;;5048935;28;20467;-66
2021/08/12 00:20:09;;;;;;;5.30;4.80;;;16.60;99.90;;;;;;5048672;28;20471;-67
2021/08/12 00:22:37;;;;;;;5.13;4.60;;;16.60;99.90;;;;;;5049214;28;20811;-67
2021/08/12 00:25:04;;;;;;;5.67;5.13;;;16.50;99.90;;;;;;5048801;28;20459;-66
2021/08/12 00:27:32;;;;;;;7.90;5.30;;;16.50;99.90;;;;;;5048218;28;20464;-67
2021/08/12 00:29:58;;;;;;;4.77;4.37;;;16.50;99.90;;;;;;5048404;28;20470;-67
2021/08/12 00:32:25;;;;;;;6.50;4.63;;;16.50;99.90;;;;;;5048722;28;20943;-67
2021/08/12 00:34:52;;;;;;;5.40;4.90;;;16.40;99.90;;;;;;5048516;28;20510;-66
2021/08/12 00:37:19;;;;;;;7.57;5.70;;;16.40;99.90;;;;;;5048230;28;20486;-67
2021/08/12 00:39:46;;;;;;;5.20;4.70;;;16.40;99.90;;;;;;5048083;28;21189;-67
2021/08/12 00:42:13;;;;;;;5.83;4.90;;;16.30;99.90;;;;;;5048446;28;20962;-66
2021/08/12 00:44:41;;;;;;;5.50;5.00;;;16.40;99.90;;;;;;5048747;28;20460;-67
2021/08/12 00:47:07;;;;;;;6.40;5.67;;;16.30;99.90;;;;;;5047986;28;20483;-66
2021/08/12 00:49:37;;;;;;;6.00;5.07;;;16.30;99.90;;;;;;5048122;28;20485;-67
2021/08/12 00:52:05;;;;;;;6.20;5.23;;;16.30;99.90;;;;;;5048041;28;20562;-67
2021/08/12 00:54:34;;;;;;;6.00;5.40;;;16.30;99.90;;;;;;5048368;28;21094;-66
2021/08/12 00:57:03;;;;;;;5.70;5.20;;;16.30;99.90;;;;;;5048131;28;20493;-66
2021/08/12 00:59:34;;;;;;;7.33;5.60;;;16.30;99.90;;;;;;5047554;28;20498;-67
2021/08/12 01:02:03;;;;;;;6.30;5.00;;;16.30;99.90;;;;;;5048398;28;20470;-67
2021/08/12 01:04:29;;;;;;;7.77;4.83;;;16.30;99.90;;;;;;5048620;28;21022;-67
2021/08/12 01:07:04;;;;;;;6.10;5.50;;;16.20;99.90;;;;;;5048822;28;21037;-67
2021/08/12 01:09:44;;;;;;;5.80;4.77;;;16.20;99.90;;;;;;5048600;28;20463;-67
2021/08/12 01:12:18;;;;;;;7.00;5.67;;;16.20;99.90;;;;;;5048524;28;20463;-66
2021/08/12 01:14:54;;;;;;;5.40;4.90;;;16.20;99.90;;;;;;5049210;28;20578;-67
2021/08/12 01:17:25;;;;;;;6.10;5.50;;;16.20;99.90;;;;;;5048400;28;20569;-67
2021/08/12 01:20:32;;;;;;;5.60;5.10;;;16.10;99.90;;;;;;5040262;28;20507;-67
2021/08/12 01:23:01;;;;;;;5.83;5.30;;;16.10;99.90;;;;;;5028295;28;20909;-67
2021/08/12 01:25:31;;;;;;;6.10;5.23;;;16.10;99.90;;;;;;5028671;28;20476;-67
2021/08/12 01:28:03;;;;;;;7.07;5.43;;;16.00;99.90;;;;;;5028228;28;20463;-66
2021/08/12 01:30:35;;;;;;;5.10;4.63;;;16.00;99.90;;;;;;5028755;28;20492;-67
2021/08/12 01:33:10;;;;;;;5.90;5.40;;;16.00;99.90;;;;;;5028749;28;20460;-67
2021/08/12 01:35:39;;;;;;;6.20;5.40;;;16.00;99.90;;;;;;5028557;28;20503;-67
2021/08/12 01:38:09;;;;;;;7.10;5.10;;;16.00;99.90;;;;;;5028168;28;20464;-66
2021/08/12 01:40:36;;;;;;;5.40;4.73;;;15.90;99.90;;;;;;5029020;28;20456;-67
2021/08/12 01:43:06;;;;;;;5.93;5.33;;;15.90;99.90;;;;;;5028542;28;20981;-66
2021/08/12 01:45:32;;;;;;;7.30;5.57;;;15.90;99.90;;;;;;5029134;28;20487;-66
2021/08/12 01:48:01;;;;;;;4.90;4.40;;;15.80;99.90;;;;;;5027952;28;20464;-67
2021/08/12 01:50:28;;;;;;;8.30;4.97;;;15.80;99.90;;;;;;5028787;28;20464;-67
2021/08/12 01:52:57;;;;;;;6.23;5.63;;;15.80;99.90;;;;;;5029606;28;20460;-67
2021/08/12 01:55:28;;;;;;;5.70;5.13;;;15.90;99.90;;;;;;5048351;28;20491;-67
2021/08/12 01:57:56;;;;;;;5.80;5.20;;;15.80;99.90;;;;;;5048275;28;20463;-67
2021/08/12 02:00:23;;;;;;;8.33;5.40;;;15.80;99.90;;;;;;5048359;28;20467;-66
2021/08/12 02:02:51;;;;;;;6.50;5.40;;;15.80;99.90;;;;;;5048708;28;20463;-66
2021/08/12 02:05:18;;;;;;;5.90;5.40;;;15.80;99.90;;;;;;5048078;28;20471;-67
2021/08/12 02:07:46;;;;;;;5.97;5.40;;;15.80;99.90;;;;;;5051938;28;20486;-66
2021/08/12 02:10:16;;;;;;;6.43;5.20;;;15.80;99.90;;;;;;5052188;28;20463;-67
2021/08/12 02:12:43;;;;;;;6.30;5.37;;;15.80;99.90;;;;;;5051799;28;21290;-66
2021/08/12 02:15:11;;;;;;;5.47;4.93;;;15.70;99.90;;;;;;5051693;28;20487;-67
2021/08/12 02:17:38;;;;;;;5.93;5.20;;;15.70;99.90;;;;;;5051439;28;20639;-66
2021/08/12 02:20:08;;;;;;;6.33;5.73;;;15.70;99.90;;;;;;5051911;28;20459;-67
2021/08/12 02:22:39;;;;;;;6.03;5.30;;;15.60;99.90;;;;;;5052031;28;20459;-67
2021/08/12 02:25:12;;;;;;;5.80;4.97;;;15.60;99.90;;;;;;5051514;28;20505;-67
2021/08/12 02:27:45;;;;;;;6.30;5.70;;;15.60;99.90;;;;;;5051469;28;20489;-66
2021/08/12 02:30:13;;;;;;;7.87;5.50;;;15.50;99.90;;;;;;5051245;28;20466;-67
2021/08/12 02:32:42;;;;;;;6.53;5.33;;;15.50;99.90;;;;;;5051677;28;20969;-66
2021/08/12 02:35:12;;;;;;;6.53;5.10;;;15.50;99.90;;;;;;5051017;28;20482;-66
2021/08/12 02:37:39;;;;;;;6.33;5.73;;;15.50;99.90;;;;;;5051198;28;21367;-66
2021/08/12 02:40:08;;;;;;;5.67;5.17;;;15.50;99.90;;;;;;5051550;28;20466;-67
2021/08/12 02:42:39;;;;;;;5.70;5.20;;;15.50;99.90;;;;;;5050174;28;20491;-66
2021/08/12 02:45:08;;;;;;;6.13;5.60;;;15.40;99.90;;;;;;5051308;28;20464;-67
2021/08/12 02:47:36;;;;;;;8.27;5.10;;;15.50;99.90;;;;;;5050821;28;20529;-67
2021/08/12 02:50:05;;;;;;;6.00;5.40;;;15.50;99.90;;;;;;5051092;28;21004;-67
2021/08/12 02:52:34;;;;;;;8.73;6.47;;;15.40;99.90;;;;;;5051437;28;20547;-66
2021/08/12 02:55:02;;;;;;;6.50;5.43;;;15.40;99.90;;;;;;5050907;28;20484;-67
2021/08/12 02:57:29;;;;;;;6.00;5.40;;;15.40;99.90;;;;;;5050781;28;20464;-67
2021/08/12 02:59:56;;;;;;;5.37;4.63;;;15.40;99.90;;;;;;5050954;28;20962;-67
2021/08/12 03:02:25;;;;;;;7.37;5.57;;;15.30;99.90;;;;;;5051162;28;20838;-66
2021/08/12 03:04:52;;;;;;;6.23;4.97;;;15.30;99.90;;;;;;5050939;28;20459;-66
2021/08/12 03:07:21;;;;;;;5.77;5.10;;;15.30;99.90;;;;;;5050120;28;20566;-67
2021/08/12 03:09:49;;;;;;;5.73;5.10;;;15.30;99.90;;;;;;5051121;28;20471;-67
2021/08/12 03:12:18;;;;;;;5.80;5.23;;;15.30;99.90;;;;;;5050533;28;20491;-67
2021/08/12 03:14:45;;;;;;;6.43;5.77;;;15.30;99.90;;;;;;5050985;28;20493;-67
2021/08/12 03:17:12;;;;;;;6.27;5.07;;;15.30;99.90;;;;;;5049917;28;20486;-66
2021/08/12 03:19:41;;;;;;;9.30;5.50;;;15.30;99.90;;;;;;5050727;28;20466;-66
2021/08/12 03:22:10;;;;;;;7.70;5.67;;;15.20;99.90;;;;;;5050634;28;20460;-65
2021/08/12 03:24:38;;;;;;;9.03;5.70;;;15.20;99.90;;;;;;5050644;28;20869;-67
2021/08/12 03:27:07;;;;;;;5.70;4.83;;;15.20;99.90;;;;;;5050478;28;20490;-66
2021/08/12 03:29:34;;;;;;;6.90;6.20;;;15.20;99.90;;;;;;5050072;28;20514;-67
2021/08/12 03:32:00;;;;;;;5.90;5.17;;;15.20;99.90;;;;;;5050322;28;20467;-66
2021/08/12 03:34:27;;;;;;;6.63;5.60;;;15.20;99.90;;;;;;5050119;28;20492;-66
2021/08/12 03:36:55;;;;;;;7.00;5.83;;;15.10;99.90;;;;;;5050126;28;20529;-67
2021/08/12 03:39:22;;;;;;;6.20;5.60;;;15.10;99.90;;;;;;5049676;28;20541;-66
2021/08/12 03:41:50;;;;;;;7.23;6.50;;;15.10;99.90;;;;;;5050177;28;20455;-66
2021/08/12 03:44:17;;;;;;;8.53;6.57;;;15.10;99.90;;;;;;5050093;28;20462;-67
2021/08/12 03:46:44;;;;;;;7.20;6.17;;;15.00;99.90;;;;;;5050038;28;20490;-66
2021/08/12 03:49:11;;;;;;;7.07;5.83;;;15.00;99.90;;;;;;5049272;28;20467;-66
2021/08/12 03:51:37;;;;;;;5.43;4.93;;;15.00;99.90;;;;;;5050335;28;21100;-67
2021/08/12 03:54:06;;;;;;;6.67;6.07;;;15.00;99.90;;;;;;5049621;28;20459;-67
2021/08/12 03:56:32;;;;;;;7.10;5.50;;;15.00;99.90;;;;;;5050022;28;20483;-66
2021/08/12 03:58:59;;;;;;;7.07;5.80;;;15.00;99.90;;;;;;5049067;28;20466;-67
2021/08/12 04:01:26;;;;;;;6.30;5.33;;;15.00;99.90;;;;;;5049796;28;20464;-66
2021/08/12 04:03:52;;;;;;;7.50;5.23;;;15.00;99.90;;;;;;5049913;28;20466;-67
2021/08/12 04:06:19;;;;;;;6.23;5.53;;;15.00;99.90;;;;;;5049214;28;20487;-66
2021/08/12 04:08:46;;;;;;;8.17;5.50;;;14.90;99.90;;;;;;5048962;28;20467;-66
2021/08/12 04:11:14;;;;;;;7.17;5.93;;;14.90;99.90;;;;;;5055518;28;20460;-66
2021/08/12 04:13:40;;;;;;;6.97;6.17;;;14.90;99.90;;;;;;5045820;28;21342;-67
2021/08/12 04:16:07;;;;;;;8.40;5.80;;;14.80;99.90;;;;;;5041029;28;20510;-66
2021/08/12 04:18:34;;;;;;;7.67;5.30;;;14.90;99.90;;;;;;5057454;28;20459;-66
2021/08/12 04:21:00;;;;;;;5.73;5.00;;;14.90;99.90;;;;;;5069515;28;20470;-66
2021/08/12 04:23:27;;;;;;;6.57;5.97;;;14.90;99.90;;;;;;5054240;28;20459;-67
2021/08/12 04:25:54;;;;;;;5.90;5.30;;;14.90;99.90;;;;;;5049449;28;20480;-67
2021/08/12 04:28:22;;;;;;;6.30;5.70;;;14.90;99.90;;;;;;5047877;28;21146;-67
2021/08/12 04:30:49;;;;;;;6.03;5.40;;;14.90;99.90;;;;;;5048976;28;20970;-67
2021/08/12 04:33:16;;;;;;;6.80;4.90;;;14.90;99.90;;;;;;5048921;28;20460;-67
2021/08/12 04:35:43;;;;;;;5.70;5.20;;;15.00;99.90;;;;;;5048954;28;20578;-67
2021/08/12 04:38:10;;;;;;;5.77;5.00;;;15.00;99.90;;;;;;5048492;28;20471;-67
2021/08/12 04:40:36;;;;;;;5.53;5.03;;;15.00;99.90;;;;;;5049362;28;20847;-67
2021/08/12 04:43:03;;;;;;;6.23;5.57;;;15.00;99.90;;;;;;5048542;28;20466;-67
2021/08/12 04:45:32;;;;;;;5.90;5.40;;;15.00;99.90;;;;;;5049100;28;20487;-67
2021/08/12 04:48:00;;;;;;;6.60;5.07;;;15.00;99.90;;;;;;5048013;28;20950;-67
2021/08/12 04:50:27;;;;;;;6.80;5.30;;;15.00;99.90;;;;;;5048803;28;20495;-66
2021/08/12 04:52:54;;;;;;;7.43;5.07;;;15.00;99.90;;;;;;5049096;28;20491;-66
2021/08/12 04:55:21;;;;;;;6.50;5.90;;;15.10;99.90;;;;;;5048074;28;20495;-67
2021/08/12 04:57:48;;;;;;;5.87;5.33;;;15.10;99.90;;;;;;5048448;28;20470;-67
2021/08/12 05:00:15;;;;;;;8.30;6.50;;;15.10;99.90;;;;;;5047709;28;20947;-66
2021/08/12 05:02:44;;;;;;;7.93;5.87;;;15.10;99.90;;;;;;5048824;28;20887;-67
2021/08/12 05:05:11;;;;;;;5.97;5.37;;;15.10;99.90;;;;;;5048212;28;20463;-66
2021/08/12 05:10:26;;;;;;;8.80;6.63;;;15.20;99.90;;;;;;5050205;28;20451;-92
2021/08/12 05:13:21;;;;;;;6.50;5.90;;;15.30;99.90;;;;;;5057055;28;20566;-91
2021/08/12 05:31:35;;;;;;;8.73;6.53;;;15.70;99.90;;;;;;5037081;28;20895;-91
2021/08/12 05:38:21;;;;;;;7.10;5.73;;;15.80;99.90;;;;;;5037283;28;20460;-91
2021/08/12 05:53:43;;;;;;;6.30;5.70;;;15.90;99.90;;;;;;4990021;28;20478;-91
2021/08/12 05:58:57;;;;;;;7.03;5.93;;;16.10;99.90;;;;;;4979366;28;20851;-90
2021/08/12 06:01:31;;;;;;;8.90;6.50;;;16.20;99.90;;;;;;4993608;28;20885;-89
2021/08/12 06:09:52;;;;;;;8.17;6.20;;;16.40;99.90;;;;;;5040101;28;20463;-90
2021/08/12 06:17:53;;;;;;;7.83;5.90;;;16.60;99.90;;;;;;5074645;28;20535;-91
2021/08/12 06:20:20;;;;;;;7.00;5.70;;;16.70;99.90;;;;;;5079309;28;20431;-93
2021/08/12 06:22:52;;;;;;;8.80;6.60;;;16.80;99.90;;;;;;5078933;28;20506;-93
2021/08/12 06:25:20;;;;;;;6.53;5.87;;;16.90;99.90;;;;;;5079380;28;20440;-93
2021/08/12 06:27:47;;;;;;;6.93;6.23;;;17.00;99.90;;;;;;5078501;28;20463;-93
2021/08/12 06:30:14;;;;;;;6.47;5.77;;;17.10;99.90;;;;;;5079560;28;20462;-92
2021/08/12 06:32:41;;;;;;;8.03;6.40;;;17.20;99.90;;;;;;5078638;28;20538;-92
2021/08/12 06:35:11;;;;;;;7.90;6.30;;;17.20;99.90;;;;;;5073904;28;20487;-91
2021/08/12 06:37:44;;;;;;;9.17;5.87;;;17.30;99.90;;;;;;5054826;28;20859;-89
2021/08/12 06:40:14;;;;;;;7.37;6.67;;;17.40;99.90;;;;;;5054016;28;20463;-88
2021/08/12 06:42:42;;;;;;;6.63;5.93;;;17.50;99.90;;;;;;5054992;28;20550;-89
2021/08/12 06:45:13;;;;;;;9.17;6.73;;;17.60;99.90;;;;;;5055437;28;20455;-88
2021/08/12 06:47:40;;;;;;;7.03;6.33;;;17.70;99.90;;;;;;5064293;28;20479;-93
2021/08/12 06:50:09;;;;;;;11.57;6.70;;;17.80;99.90;;;;;;5061826;28;20462;-90
2021/08/12 06:52:36;;;;;;;10.00;7.17;;;18.00;99.90;;;;;;5069099;28;20453;-94
2021/08/12 06:55:04;;;;;;;10.13;7.50;;;18.10;99.90;;;;;;5049815;28;20544;-94
2021/08/12 06:57:32;;;;;;;7.13;6.30;;;18.20;99.90;;;;;;5048835;28;20483;-93
2021/08/12 06:59:59;;;;;;;6.63;5.83;;;18.40;99.90;;;;;;5049185;28;20460;-93
2021/08/12 07:02:25;;;;;;;7.10;6.40;;;18.60;99.90;;;;;;5046566;28;20455;-94
2021/08/12 07:04:52;;;;;;;7.60;6.37;;;18.70;99.90;;;;;;5048931;28;20461;-92
2021/08/12 07:07:19;;;;;;;6.37;5.77;;;18.90;99.90;;;;;;5051100;28;20484;-90
2021/08/12 07:09:47;;;;;;;6.77;5.77;;;19.00;99.90;;;;;;5053029;28;20453;-92
2021/08/12 07:12:15;;;;;;;6.47;5.83;;;19.20;99.90;;;;;;5057931;28;20472;-93
2021/08/12 07:15:01;;;;;;;8.40;5.83;;;19.30;99.90;;;;;;5058574;28;20436;-91
2021/08/12 07:17:30;;;;;;;7.30;6.13;;;19.50;99.90;;;;;;5057650;28;20457;-92
2021/08/12 07:19:57;;;;;;;6.97;6.20;;;19.60;99.90;;;;;;5066762;28;20498;-94
2021/08/12 07:22:24;;;;;;;7.17;5.83;;;19.70;99.90;;;;;;5079118;28;20436;-93
2021/08/12 07:24:50;;;;;;;6.20;5.60;;;19.80;99.90;;;;;;5079324;28;20474;-91
2021/08/12 07:27:17;;;;;;;7.43;6.23;;;19.90;99.90;;;;;;5079056;28;20491;-92
2021/08/12 07:32:30;;;;;;;7.10;4.93;;;20.10;99.90;;;;;;5067081;28;20560;-76
2021/08/12 07:34:57;;;;;;;5.67;5.17;;;20.20;99.90;;;;;;5069302;28;20517;-76
2021/08/12 07:37:23;;;;;;;6.67;6.00;;;20.30;99.90;;;;;;5050101;28;20482;-75
2021/08/12 07:39:50;;;;;;;5.87;5.37;;;20.40;99.90;;;;;;5050148;28;20452;-75
2021/08/12 07:42:19;;;;;;;6.60;6.00;;;20.50;99.90;;;;;;5049699;28;20466;-75
2021/08/12 07:44:46;;;;;;;6.60;5.70;;;20.70;99.90;;;;;;5050277;28;20513;-75
2021/08/12 07:47:13;;;;;;;5.40;4.80;;;20.70;99.90;;;;;;5060831;28;20528;-75
2021/08/12 07:49:41;;;;;;;5.83;5.10;;;20.90;99.90;;;;;;5046373;28;20455;-75
2021/08/12 07:52:08;;;;;;;5.27;4.87;;;21.00;99.90;;;;;;5055495;28;20442;-75
2021/08/12 07:54:35;;;;;;;6.70;5.40;;;21.20;99.90;;;;;;5069249;28;20705;-74
2021/08/12 07:57:02;;;;;;;6.80;5.37;;;21.30;99.90;;;;;;5060857;28;20486;-74
2021/08/12 07:59:29;;;;;;;6.27;5.33;;;21.40;99.90;;;;;;5046969;28;20476;-74
2021/08/12 08:01:56;;;;;;;6.37;5.70;;;21.40;99.90;;;;;;5048945;28;20470;-74
2021/08/12 08:04:22;;;;;;;8.70;5.57;;;21.60;99.90;;;;;;5048434;28;20460;-74
2021/08/12 08:06:50;;;;;;;6.80;5.67;;;21.70;99.90;;;;;;5048169;28;20483;-74
2021/08/12 08:09:17;;;;;;;5.40;4.90;;;21.70;99.90;;;;;;5048588;28;20463;-74
2021/08/12 08:11:44;;;;;;;5.70;5.20;;;21.70;99.90;;;;;;5048124;28;21114;-74
2021/08/12 08:14:10;;;;;;;5.47;4.97;;;21.80;99.90;;;;;;5048189;28;20536;-74
2021/08/12 08:16:37;;;;;;;5.80;5.20;;;21.90;99.90;;;;;;5047923;28;20487;-74
2021/08/12 08:19:04;;;;;;;5.60;5.10;;;22.00;99.90;;;;;;5048255;28;20558;-74
2021/08/12 08:21:30;;;;;;;6.43;5.83;;;22.10;99.90;;;;;;5048515;28;20556;-75
2021/08/12 08:23:58;;;;;;;5.77;5.17;;;22.20;99.90;;;;;;5048775;28;20463;-75
2021/08/12 08:26:25;;;;;;;5.50;5.00;;;22.30;99.90;;;;;;5048084;28;20856;-74
2021/08/12 08:28:52;;;;;;;5.87;5.30;;;22.40;99.90;;;;;;5048009;28;20467;-74
2021/08/12 08:31:18;;;;;;;5.87;5.27;;;22.50;99.90;;;;;;5048494;28;20475;-74
2021/08/12 08:33:45;;;;;;;5.77;5.13;;;22.60;99.90;;;;;;5048763;28;20837;-74
2021/08/12 08:36:12;;;;;;;6.27;5.60;;;22.80;99.90;;;;;;5049233;28;20487;-73
2021/08/12 08:38:38;;;;;;;5.90;5.20;;;22.90;99.90;;;;;;5047767;28;20463;-74
2021/08/12 08:41:08;;;;;;;7.20;5.67;;;23.00;99.90;;;;;;5049187;28;20467;-75
2021/08/12 08:43:36;;;;;;;6.70;5.30;;;23.10;99.90;;;;;;5048173;28;20467;-76
2021/08/12 08:46:03;;;;;;;6.13;5.40;;;23.20;99.90;;;;;;5048883;28;21063;-75
2021/08/12 08:48:33;;;;;;;6.13;5.20;;;23.40;99.90;;;;;;5048223;28;20463;-74
2021/08/12 08:51:00;;;;;;;5.73;5.10;;;23.50;99.90;;;;;;5048003;28;20463;-75
2021/08/12 08:53:28;;;;;;;5.40;4.90;;;23.70;99.90;;;;;;5047497;28;20455;-75
2021/08/12 08:55:55;;;;;;;6.33;5.73;;;23.90;99.90;;;;;;5046871;28;20527;-74
2021/08/12 08:58:23;;;;;;;6.07;5.50;;;24.00;99.90;;;;;;5046812;28;20448;-73
2021/08/12 09:00:51;;;;;;;6.13;5.53;;;24.20;99.90;;;;;;5046668;28;20478;-74
2021/08/12 09:03:18;;;;;;;6.10;4.83;;;24.20;99.90;;;;;;5046957;28;20955;-73
2021/08/12 09:05:45;;;;;;;9.10;5.27;;;24.30;99.90;;;;;;5046847;28;20479;-75
2021/08/12 09:08:12;;;;;;;8.10;6.07;;;24.40;99.90;;;;;;5046688;28;20460;-73
2021/08/12 09:10:38;;;;;;;5.83;5.20;;;24.40;99.90;;;;;;5046676;28;20464;-74
2021/08/12 09:13:07;;;;;;;8.37;4.83;;;24.60;99.90;;;;;;5047822;28;20459;-73
2021/08/12 09:15:44;;;;;;;6.93;5.20;;;24.60;99.90;;;;;;5047863;28;20903;-74
2021/08/12 09:18:22;;;;;;;5.77;5.27;;;24.70;99.90;;;;;;5047708;28;20981;-74
2021/08/12 09:20:50;;;;;;;8.23;5.17;;;24.70;99.90;;;;;;5047900;28;20470;-74
2021/08/12 09:23:23;;;;;;;8.87;5.87;;;24.70;99.90;;;;;;5047428;28;20463;-74
2021/08/12 09:25:50;;;;;;;5.90;5.40;;;24.80;99.90;;;;;;5047980;28;20487;-74
2021/08/12 09:28:20;;;;;;;7.57;5.77;;;24.90;99.90;;;;;;5047535;28;20463;-74
2021/08/12 09:31:06;;;;;;;7.10;5.90;;;25.10;99.90;;;;;;5047005;28;20574;-75
2021/08/12 09:33:34;;;;;;;7.00;5.73;;;25.20;99.90;;;;;;5045861;28;20488;-74
2021/08/12 09:36:02;;;;;;;7.40;5.90;;;25.40;99.90;;;;;;5047389;28;20864;-73
2021/08/12 09:38:29;;;;;;;6.13;5.53;;;25.50;99.90;;;;;;5039866;28;20866;-73
2021/08/12 09:40:58;;;;;;;10.60;5.67;;;25.60;99.90;;;;;;5028783;28;20742;-74
2021/08/12 09:43:30;;;;;;;6.10;4.60;;;25.70;99.90;;;;;;5043152;28;20887;-74
2021/08/12 09:45:58;;;;;;;6.73;5.80;;;25.80;99.90;;;;;;5044540;28;20574;-74
2021/08/12 09:48:27;;;;;;;6.40;5.80;;;25.90;99.90;;;;;;5040589;28;20455;-73
2021/08/12 09:51:01;;;;;;;6.40;5.00;;;26.00;99.90;;;;;;5044015;28;20667;-73
2021/08/12 09:53:28;;;;;;;6.93;5.47;;;26.00;99.90;;;;;;5043197;28;20467;-73
2021/08/12 09:55:56;;;;;;;5.47;4.80;;;26.10;99.90;;;;;;5023930;28;20492;-72
2021/08/12 09:58:23;;;;;;;6.07;5.47;;;26.10;99.90;;;;;;5039083;28;20460;-72
2021/08/12 10:00:51;;;;;;;5.90;5.30;;;26.20;99.90;;;;;;5047502;28;20463;-73
2021/08/12 10:03:29;;;;;;;7.03;5.10;;;26.20;99.90;;;;;;5046971;28;20455;-73
2021/08/12 10:05:58;;;;;;;5.70;5.10;;;26.20;99.90;;;;;;5047668;28;20483;-73
2021/08/12 10:08:30;;;;;;;7.73;5.47;;;26.20;99.90;;;;;;5049374;28;20471;-74
2021/08/12 10:10:58;;;;;;;6.03;5.20;;;26.10;99.90;;;;;;5046440;28;20464;-74
2021/08/12 10:13:24;;;;;;;5.97;5.37;;;26.20;99.90;;;;;;5043665;28;20467;-72
2021/08/12 10:15:52;;;;;;;6.80;5.70;;;26.30;99.90;;;;;;5046803;28;20483;-73
2021/08/12 10:18:20;;;;;;;6.47;5.77;;;26.30;99.90;;;;;;5046532;28;20463;-73
2021/08/12 10:20:49;;;;;;;7.83;5.60;;;26.40;99.90;;;;;;5047077;28;20463;-74
2021/08/12 10:23:18;;;;;;;6.07;5.57;;;26.40;99.90;;;;;;5046879;28;20902;-74
2021/08/12 10:25:51;;;;;;;6.10;5.43;;;26.50;99.90;;;;;;5047004;28;20863;-74
2021/08/12 10:28:20;;;;;;;6.47;5.87;;;26.60;99.90;;;;;;5050212;28;20466;-73
2021/08/12 10:30:47;;;;;;;7.63;5.50;;;26.60;99.90;;;;;;5050368;28;20568;-74
2021/08/12 10:33:14;;;;;;;6.27;5.13;;;26.70;99.90;;;;;;5051211;28;20463;-74
2021/08/12 10:35:41;;;;;;;6.13;5.53;;;26.80;99.90;;;;;;5050358;28;20487;-73
2021/08/12 10:38:09;;;;;;;7.50;5.97;;;26.90;99.90;;;;;;5050298;28;21010;-73
2021/08/12 10:40:38;;;;;;;6.17;5.67;;;27.00;99.90;;;;;;5050465;28;20473;-73
2021/08/12 10:43:06;;;;;;;5.90;5.40;;;27.10;99.90;;;;;;5050454;28;20460;-74
2021/08/12 10:45:33;;;;;;;6.90;5.53;;;27.20;99.90;;;;;;5050281;28;20481;-73
2021/08/12 10:48:01;;;;;;;6.30;5.40;;;27.30;99.90;;;;;;5050073;28;20459;-74
2021/08/12 10:50:31;;;;;;;8.93;5.63;;;27.30;99.90;;;;;;5049554;28;20465;-74
2021/08/12 10:53:20;;;;;;;6.63;6.03;;;27.30;99.90;;;;;;5050273;28;20452;-73
2021/08/12 10:56:05;;;;;;;7.40;5.80;;;27.40;99.90;;;;;;5047302;28;20476;-72
2021/08/12 10:58:36;;;;;;;6.20;5.63;;;27.40;99.90;;;;;;5048035;28;20462;-73
2021/08/12 11:01:06;;;;;;;6.37;5.73;;;27.50;99.90;;;;;;5047786;28;20449;-74
2021/08/12 11:03:44;;;;;;;6.83;5.97;;;27.50;99.90;;;;;;5048827;28;20462;-74
2021/08/12 11:09:04;;;;;;;6.60;5.83;;;27.60;99.90;;;;;;5059460;28;20485;-68
2021/08/12 11:11:51;;;;;;;6.73;5.87;;;27.60;99.90;;;;;;5068590;28;20456;-68
2021/08/12 11:14:53;;;;;;;6.77;6.17;;;27.50;99.90;;;;;;5069246;28;20459;-68
2021/08/12 11:17:21;;;;;;;6.23;5.70;;;27.40;99.90;;;;;;5030511;28;20539;-68
2021/08/12 11:19:48;;;;;;;5.80;5.23;;;27.40;99.90;;;;;;5029788;28;20466;-66
2021/08/12 11:22:29;;;;;;;7.30;6.30;;;27.30;99.90;;;;;;5040497;28;20468;-66
2021/08/12 11:24:58;;;;;;;6.37;5.87;;;27.40;99.90;;;;;;5049480;28;20460;-66
2021/08/12 11:27:42;;;;;;;6.23;5.70;;;27.40;99.90;;;;;;5040362;28;20484;-66
2021/08/12 11:30:46;;;;;;;7.03;5.80;;;27.40;99.90;;;;;;5029702;28;20457;-66
2021/08/12 11:33:47;;;;;;;10.63;6.23;;;27.40;99.90;;;;;;5029822;28;20464;-66
2021/08/12 11:36:22;;;;;;;9.37;6.63;;;27.30;99.90;;;;;;5029819;28;20479;-66
2021/08/12 11:38:52;;;;;;;6.53;5.87;;;27.30;99.90;;;;;;5027684;28;20520;-66
2021/08/12 11:41:22;;;;;;;7.43;6.77;;;27.30;99.90;;;;;;5029231;28;20468;-66
2021/08/12 11:43:50;;;;;;;7.00;6.30;;;27.30;99.90;;;;;;5047234;28;20960;-66
2021/08/12 11:46:18;;;;;;;6.80;5.77;;;27.40;99.90;;;;;;5048873;28;20485;-66
2021/08/12 11:48:45;;;;;;;6.63;6.03;;;27.50;99.90;;;;;;5044025;28;20487;-66
2021/08/12 11:51:12;;;;;;;7.03;6.43;;;27.70;99.90;;;;;;5047073;28;20458;-66
2021/08/12 11:53:44;;;;;;;7.53;6.47;;;27.90;99.90;;;;;;5026563;28;20470;-66
2021/08/12 11:56:24;;;;;;;6.97;6.27;;;28.00;99.90;;;;;;5047877;28;20480;-66
2021/08/12 11:58:52;;;;;;;6.57;5.97;;;28.20;99.90;;;;;;5046667;28;20450;-66
2021/08/12 12:01:21;;;;;;;6.70;6.20;;;28.20;99.90;;;;;;5045500;28;20454;-66
2021/08/12 12:03:49;;;;;;;7.00;6.10;;;28.10;99.90;;;;;;5048085;28;20460;-65
2021/08/12 12:06:37;;;;;;;6.77;6.07;;;27.90;99.90;;;;;;5048003;28;20509;-66
2021/08/12 12:09:24;;;;;;;7.60;6.57;;;27.80;99.90;;;;;;5047889;28;20465;-66
2021/08/12 12:11:55;;;;;;;6.53;6.03;;;27.90;99.90;;;;;;5048795;28;20469;-66
2021/08/12 12:14:23;;;;;;;6.30;5.80;;;27.90;99.90;;;;;;5048036;28;20515;-66
2021/08/12 12:17:23;;;;;;;8.83;6.77;;;27.90;99.90;;;;;;5048108;28;20488;-66
2021/08/12 12:20:11;;;;;;;6.97;6.37;;;27.90;99.90;;;;;;5048148;28;20956;-66
2021/08/12 12:22:42;;;;;;;7.20;5.70;;;28.10;99.90;;;;;;5038140;28;20469;-66
2021/08/12 12:25:11;;;;;;;6.50;5.80;;;28.20;99.90;;;;;;5028938;28;20461;-67
2021/08/12 12:27:40;;;;;;;6.40;5.90;;;28.40;99.90;;;;;;5028315;28;20974;-67
2021/08/12 12:30:10;;;;;;;7.10;6.50;;;28.50;99.90;;;;;;5028990;28;20461;-66
2021/08/12 12:32:37;;;;;;;6.80;6.20;;;28.70;99.90;;;;;;5028609;28;20908;-66
2021/08/12 12:35:06;;;;;;;6.33;5.73;;;28.80;99.90;;;;;;5028567;28;20464;-66
2021/08/12 12:37:34;;;;;;;5.60;5.10;;;28.80;99.90;;;;;;5030441;28;20496;-66
2021/08/12 12:40:01;;;;;;;6.37;5.83;;;28.90;99.90;;;;;;5047141;28;20467;-66
2021/08/12 12:42:32;;;;;;;6.90;6.17;;;29.00;99.90;;;;;;5050732;28;20470;-69
2021/08/12 12:45:03;;;;;;;6.77;6.13;;;29.00;99.90;;;;;;5048078;28;20468;-67
2021/08/12 12:47:32;;;;;;;7.67;6.50;;;28.90;99.90;;;;;;5047784;28;20466;-66
2021/08/12 12:50:10;;;;;;;6.80;6.30;;;28.80;99.90;;;;;;5047751;28;20456;-66
2021/08/12 12:52:37;;;;;;;8.07;5.60;;;28.90;99.90;;;;;;5047689;28;20875;-66
2021/08/12 12:55:17;;;;;;;6.43;5.83;;;28.90;99.90;;;;;;5047559;28;20466;-67
2021/08/12 12:57:46;;;;;;;6.37;5.87;;;29.10;99.90;;;;;;5047778;28;20499;-67
2021/08/12 13:00:22;;;;;;;5.87;5.37;;;29.20;99.90;;;;;;5047127;28;20500;-67
2021/08/12 13:02:52;;;;;;;6.63;6.03;;;29.30;99.90;;;;;;5049025;28;20467;-67
2021/08/12 13:05:19;;;;;;;6.57;5.97;;;29.40;99.90;;;;;;5067820;28;20497;-67
2021/08/12 13:07:45;;;;;;;6.67;6.07;;;29.50;99.90;;;;;;5046420;28;20461;-66
2021/08/12 13:10:21;;;;;;;6.40;5.27;;;29.50;99.90;;;;;;5047852;28;20463;-67
2021/08/12 13:12:58;;;;;;;6.30;5.70;;;29.60;99.90;;;;;;5046993;28;20461;-66
2021/08/12 13:15:27;;;;;;;7.40;6.37;;;29.70;99.90;;;;;;5046712;28;20468;-66
2021/08/12 13:17:58;;;;;;;5.63;5.10;;;29.70;99.90;;;;;;5043578;28;20486;-67
2021/08/12 13:20:25;;;;;;;6.80;6.03;;;29.70;99.90;;;;;;5045715;28;20463;-66
2021/08/12 13:22:54;;;;;;;6.30;5.80;;;29.70;99.90;;;;;;5047315;28;20463;-67
2021/08/12 13:25:23;;;;;;;6.40;5.80;;;29.70;99.90;;;;;;5047608;28;20457;-67
2021/08/12 13:27:51;;;;;;;5.93;5.43;;;29.80;99.90;;;;;;5046896;28;20460;-67
2021/08/12 13:30:26;;;;;;;6.57;6.07;;;29.90;99.90;;;;;;5047883;28;20452;-67
2021/08/12 13:32:54;;;;;;;6.97;6.27;;;29.90;99.90;;;;;;5046818;28;20461;-67
2021/08/12 13:35:21;;;;;;;6.07;5.50;;;29.90;99.90;;;;;;5047756;28;20863;-67
2021/08/12 13:37:48;;;;;;;6.33;5.83;;;29.80;99.90;;;;;;5046665;28;20477;-67
2021/08/12 13:40:15;;;;;;;6.20;5.70;;;29.80;99.90;;;;;;5048295;28;20977;-66
2021/08/12 13:42:42;;;;;;;6.30;5.80;;;29.80;99.90;;;;;;5048045;28;20946;-66
2021/08/12 13:45:09;;;;;;;7.13;6.53;;;29.70;99.90;;;;;;5047280;28;20476;-67
2021/08/12 13:47:36;;;;;;;7.80;7.10;;;29.70;99.90;;;;;;5047109;28;20451;-66
2021/08/12 13:50:05;;;;;;;7.07;6.37;;;29.60;99.90;;;;;;5046494;28;20468;-67
2021/08/12 13:52:32;;;;;;;6.57;5.97;;;29.60;99.90;;;;;;5047210;28;20906;-67